Česky Dansk Deutsch English Español Suomi Français Magyar Italiano Nederlands norsk Polski Português svenska Türkçe

 

Weather

Limnos Airport (Greece)

07:20, 18 August 2016 (GMT)

NWNNE
WE
SWSSE
Home            
Limnos Airport Canakkale Alexandroupoli Airport Chrysoupoli Airport Mytilini Airport Skiathos Island Chios Airport Thessaloniki Airport Izmir \ Kaklic Izmir / Cigli Anchialos Airport Tanagra Airport Balikesir Bandirma Tatoi Larissa Airport Izmir / Adnan Menderes Athens Eleftherios Venizelos International Airport Plovdiv Akhisar Elefsis Airport Athinai Airport Corlu

To put a weather button on your web site or blog, copy the code below and paste it into your page . The first box contains HTML code, the second UBB code.


Add to Google

Details

Wind speed:3 bf, 9 kn, 4.6 m/s, 10.4 miles/h, 16.7 km/h
Wind direction:NE, 040°
Visibility:Greater than 10000 m, 10 km, 32800 ft, 6.2 miles
Clouds:CAVOC
Temperature:28°C, 82°F
Feels like:29°C, 85°F
Dew-point:20°C, 68°F
Atmospheric pressure:1009 hPa, 756.8 mmHg, 29.80 inHg, 0.996 atm
Relative humidity:61.9 %
METAR:LGLM 180720Z 04009KT CAVOK 28/20 Q1009

Shortcuts

An up-to-date overview of weather conditions all over the world. Add locations with the plus (+) sign. These shortcuts can be added to Google.

Lid van de Technetium groep

website free tracking
StatCounter NetStat W3C Validator

09-12-2022 11:47:35
astro.technetium.be money.technetium.be phote.technetium.be tafeltennistafel.technetium.be www.ligfiets.net